Time;durP1;ratioP1;P1;durP2;ratioP2;P2;SDS_P1;SDS_P2;PMS_P1;PMS_P2;Temp;Humidity;BMP_temperature;BMP_pressure;BME280_temperature;BME280_humidity;BME280_pressure;Samples;Min_cycle;Max_cycle;Signal;HPM_P1;HPM_P2
2022/10/27 00:00:47;;;;;;;0.00;0.00;;;;;;;;;;5096058;28;20045;-78
2022/10/27 00:03:14;;;;;;;0.00;0.00;;;;;;;;;;5095832;28;20035;-79
2022/10/27 00:05:40;;;;;;;0.00;0.00;;;;;;;;;;5098004;28;20057;-78
2022/10/27 00:08:06;;;;;;;0.00;0.00;;;;;;;;;;5119915;28;20046;-79
2022/10/27 00:10:33;;;;;;;0.00;0.00;;;;;;;;;;5113222;28;20054;-78
2022/10/27 00:12:59;;;;;;;0.03;0.03;;;;;;;;;;5094899;28;20107;-78
2022/10/27 00:15:26;;;;;;;0.00;0.00;;;;;;;;;;5106661;28;20032;-78
2022/10/27 00:17:52;;;;;;;0.75;0.75;;;;;;;;;;5111913;28;20020;-78
2022/10/27 00:20:18;;;;;;;0.00;0.00;;;;;;;;;;5104214;28;20572;-77
2022/10/27 00:22:45;;;;;;;0.00;0.00;;;;;;;;;;5097596;28;20039;-77
2022/10/27 00:25:11;;;;;;;1.35;1.35;;;;;;;;;;5092895;28;20376;-77
2022/10/27 00:27:38;;;;;;;0.00;0.00;;;;;;;;;;5074427;28;20472;-79
2022/10/27 00:30:04;;;;;;;0.00;0.00;;;;;;;;;;5108521;28;20036;-78
2022/10/27 00:32:30;;;;;;;0.00;0.00;;;;;;;;;;5114092;28;20077;-78
2022/10/27 00:34:57;;;;;;;1.40;0.40;;;;;;;;;;5114725;28;20028;-79
2022/10/27 00:37:24;;;;;;;0.00;0.00;;;;;;;;;;5109885;28;20030;-78
2022/10/27 00:39:50;;;;;;;0.00;0.00;;;;;;;;;;5106300;28;20028;-78
2022/10/27 00:42:17;;;;;;;0.00;0.00;;;;;;;;;;5104954;28;20166;-78
2022/10/27 00:44:47;;;;;;;0.00;0.00;;;;;;;;;;5086250;28;20065;-79
2022/10/27 00:47:19;;;;;;;0.00;0.00;;;;;;;;;;5085499;28;20040;-78
2022/10/27 00:49:49;;;;;;;0.00;0.00;;;;;;;;;;5100888;28;20016;-78
2022/10/27 00:52:20;;;;;;;0.00;0.00;;;;;;;;;;5102674;28;20035;-77
2022/10/27 00:54:47;;;;;;;0.00;0.00;;;;;;;;;;5083101;28;20459;-77
2022/10/27 00:57:13;;;;;;;0.00;0.00;;;;;;;;;;5103815;28;20501;-76
2022/10/27 00:59:40;;;;;;;0.00;0.00;;;;;;;;;;5101016;28;20545;-77
2022/10/27 01:02:07;;;;;;;0.30;0.30;;;;;;;;;;5095717;28;20562;-77
2022/10/27 01:04:36;;;;;;;0.00;0.00;;;;;;;;;;5092090;28;20103;-77
2022/10/27 01:07:02;;;;;;;0.00;0.00;;;;;;;;;;5083749;28;20069;-76
2022/10/27 01:09:29;;;;;;;0.00;0.00;;;;;;;;;;5092212;28;20533;-76
2022/10/27 01:11:56;;;;;;;0.00;0.00;;;;;;;;;;5092253;28;20107;-76
2022/10/27 01:14:22;;;;;;;0.00;0.00;;;;;;;;;;5092072;28;20091;-77
2022/10/27 01:16:57;;;;;;;0.00;0.00;;;;;;;;;;5076013;28;20016;-77
2022/10/27 01:19:33;;;;;;;0.00;0.00;;;;;;;;;;5114846;28;20030;-76
2022/10/27 01:22:13;;;;;;;0.00;0.00;;;;;;;;;;5114098;28;20573;-76
2022/10/27 01:25:03;;;;;;;0.00;0.00;;;;;;;;;;5099749;28;20102;-77
2022/10/27 01:27:35;;;;;;;0.00;0.00;;;;;;;;;;5107645;28;20016;-77
2022/10/27 01:30:09;;;;;;;0.00;0.00;;;;;;;;;;5113150;28;20023;-77
2022/10/27 01:32:54;;;;;;;0.00;0.00;;;;;;;;;;5115314;28;20115;-77
2022/10/27 01:35:26;;;;;;;0.00;0.00;;;;;;;;;;5086234;28;20118;-77
2022/10/27 01:37:57;;;;;;;1.10;1.10;;;;;;;;;;5097426;28;20027;-77
2022/10/27 01:40:35;;;;;;;0.00;0.00;;;;;;;;;;5113129;27;20066;-77
2022/10/27 01:43:04;;;;;;;0.00;0.00;;;;;;;;;;5095304;28;20055;-76
2022/10/27 01:45:33;;;;;;;0.00;0.00;;;;;;;;;;5112944;28;20070;-77
2022/10/27 01:48:00;;;;;;;0.00;0.00;;;;;;;;;;5114915;28;20023;-77
2022/10/27 01:50:33;;;;;;;0.00;0.00;;;;;;;;;;5093991;28;20028;-76
2022/10/27 01:53:00;;;;;;;0.00;0.00;;;;;;;;;;5115315;28;20449;-77
2022/10/27 01:55:26;;;;;;;0.00;0.00;;;;;;;;;;5113915;28;20112;-78
2022/10/27 01:57:53;;;;;;;0.00;0.00;;;;;;;;;;5115086;28;20015;-76
2022/10/27 02:00:19;;;;;;;0.00;0.00;;;;;;;;;;5088578;28;20067;-77
2022/10/27 02:02:50;;;;;;;0.00;0.00;;;;;;;;;;5106873;28;20027;-77
2022/10/27 02:05:25;;;;;;;0.00;0.00;;;;;;;;;;5086583;28;20035;-76
2022/10/27 02:07:54;;;;;;;1.88;1.77;;;;;;;;;;5110906;28;20019;-77
2022/10/27 02:10:26;;;;;;;1.25;0.70;;;;;;;;;;5091825;28;20106;-76
2022/10/27 02:12:53;;;;;;;0.00;0.00;;;;;;;;;;5091642;28;20050;-76
2022/10/27 02:15:39;;;;;;;0.00;0.00;;;;;;;;;;5108594;28;20114;-76
2022/10/27 02:18:10;;;;;;;0.10;0.10;;;;;;;;;;5114021;28;20053;-76
2022/10/27 02:20:39;;;;;;;0.00;0.00;;;;;;;;;;5108527;28;20079;-76
2022/10/27 02:23:07;;;;;;;0.10;0.10;;;;;;;;;;5113472;28;20122;-75
2022/10/27 02:25:44;;;;;;;0.80;0.80;;;;;;;;;;5101311;28;20032;-76
2022/10/27 02:28:13;;;;;;;0.00;0.00;;;;;;;;;;5090646;28;20038;-77
2022/10/27 02:30:40;;;;;;;0.00;0.00;;;;;;;;;;5106834;27;20060;-79
2022/10/27 02:33:07;;;;;;;0.52;0.52;;;;;;;;;;5090435;28;20119;-78
2022/10/27 02:35:34;;;;;;;0.17;0.17;;;;;;;;;;5097142;28;20333;-79
2022/10/27 02:38:00;;;;;;;0.00;0.00;;;;;;;;;;5097361;28;20030;-78
2022/10/27 02:40:27;;;;;;;0.10;0.10;;;;;;;;;;5113957;28;20031;-79
2022/10/27 02:42:53;;;;;;;4.75;4.45;;;;;;;;;;5111582;28;20028;-78
2022/10/27 02:45:20;;;;;;;0.65;0.65;;;;;;;;;;5091081;28;20122;-78
2022/10/27 02:47:47;;;;;;;0.17;0.17;;;;;;;;;;5096653;28;20487;-81
2022/10/27 02:50:13;;;;;;;0.10;0.10;;;;;;;;;;5091726;28;20040;-77
2022/10/27 02:52:42;;;;;;;0.15;0.15;;;;;;;;;;5106995;28;20106;-76
2022/10/27 02:55:09;;;;;;;0.00;0.00;;;;;;;;;;5111379;28;20071;-77
2022/10/27 02:57:36;;;;;;;0.00;0.00;;;;;;;;;;5093380;28;20045;-76
2022/10/27 03:00:02;;;;;;;0.73;0.68;;;;;;;;;;5104581;28;20035;-76
2022/10/27 03:02:28;;;;;;;0.32;0.32;;;;;;;;;;5087352;28;20471;-76
2022/10/27 03:04:56;;;;;;;0.45;0.45;;;;;;;;;;5084359;28;20078;-76
2022/10/27 03:07:23;;;;;;;4.15;2.53;;;;;;;;;;5084294;28;20020;-77
2022/10/27 03:09:49;;;;;;;0.68;0.57;;;;;;;;;;5104527;28;20028;-79
2022/10/27 03:12:16;;;;;;;9.20;2.17;;;;;;;;;;5104326;28;20027;-79
2022/10/27 03:14:42;;;;;;;5.57;2.10;;;;;;;;;;5083966;28;20116;-79
2022/10/27 03:17:08;;;;;;;5.28;3.40;;;;;;;;;;5103866;28;20383;-77
2022/10/27 03:19:35;;;;;;;6.13;2.15;;;;;;;;;;5081307;28;20040;-77
2022/10/27 03:22:01;;;;;;;2.55;1.63;;;;;;;;;;5087424;28;20073;-77
2022/10/27 03:24:28;;;;;;;0.28;0.28;;;;;;;;;;5085048;28;20030;-79
2022/10/27 03:26:54;;;;;;;3.78;1.73;;;;;;;;;;5081344;28;20032;-76
2022/10/27 03:29:21;;;;;;;0.00;0.00;;;;;;;;;;5082710;28;20027;-76
2022/10/27 03:31:48;;;;;;;8.30;3.63;;;;;;;;;;5086979;28;20024;-77
2022/10/27 03:34:14;;;;;;;4.93;2.17;;;;;;;;;;5084937;28;20107;-76
2022/10/27 03:36:40;;;;;;;0.65;0.47;;;;;;;;;;5082293;28;20024;-78
2022/10/27 03:39:07;;;;;;;0.00;0.00;;;;;;;;;;5083300;28;20500;-78
2022/10/27 03:41:33;;;;;;;0.00;0.00;;;;;;;;;;5083761;28;20107;-77
2022/10/27 03:43:59;;;;;;;0.10;0.10;;;;;;;;;;5092978;28;20045;-82
2022/10/27 03:46:26;;;;;;;3.83;0.70;;;;;;;;;;5099643;28;20054;-79
2022/10/27 03:48:54;;;;;;;6.15;1.63;;;;;;;;;;5085982;28;20060;-78
2022/10/27 03:51:20;;;;;;;4.78;1.65;;;;;;;;;;5086225;28;20500;-76
2022/10/27 03:53:47;;;;;;;5.45;1.63;;;;;;;;;;5081632;28;20027;-77
2022/10/27 03:56:13;;;;;;;3.50;1.45;;;;;;;;;;5079265;28;20105;-77
2022/10/27 03:58:40;;;;;;;4.10;3.78;;;;;;;;;;5085385;28;20024;-76
2022/10/27 04:01:06;;;;;;;5.38;1.02;;;;;;;;;;5083470;28;20476;-77
2022/10/27 04:03:33;;;;;;;0.00;0.00;;;;;;;;;;5083800;28;20511;-79
2022/10/27 04:05:59;;;;;;;1.10;0.98;;;;;;;;;;5080691;28;20110;-78
2022/10/27 04:08:25;;;;;;;2.85;2.15;;;;;;;;;;5083181;28;20610;-75
2022/10/27 04:10:52;;;;;;;0.05;0.05;;;;;;;;;;5082717;28;20037;-75
2022/10/27 04:13:18;;;;;;;0.73;0.65;;;;;;;;;;5084915;28;20024;-76
2022/10/27 04:15:45;;;;;;;2.25;1.30;;;;;;;;;;5079439;28;20373;-79
2022/10/27 04:18:11;;;;;;;23.80;1.48;;;;;;;;;;5075742;28;20086;-76
2022/10/27 04:20:38;;;;;;;2.30;1.42;;;;;;;;;;5096377;28;20065;-77
2022/10/27 04:23:04;;;;;;;0.80;0.60;;;;;;;;;;5101420;28;20072;-76
2022/10/27 04:25:30;;;;;;;0.08;0.08;;;;;;;;;;5085494;28;20532;-77
2022/10/27 04:28:07;;;;;;;12.60;0.47;;;;;;;;;;5097168;28;20032;-77
2022/10/27 04:30:33;;;;;;;1.80;1.63;;;;;;;;;;5085515;28;20043;-77
2022/10/27 04:33:00;;;;;;;2.90;1.85;;;;;;;;;;5105879;28;20069;-78
2022/10/27 04:35:26;;;;;;;1.75;1.17;;;;;;;;;;5104409;28;20519;-74
2022/10/27 04:37:56;;;;;;;6.03;2.78;;;;;;;;;;5081848;28;20030;-76
2022/10/27 04:40:22;;;;;;;0.90;0.38;;;;;;;;;;5084840;28;20023;-76
2022/10/27 04:42:48;;;;;;;1.40;1.00;;;;;;;;;;5104895;28;20020;-76
2022/10/27 04:45:15;;;;;;;0.52;0.52;;;;;;;;;;5102753;28;20069;-76
2022/10/27 04:47:42;;;;;;;0.00;0.00;;;;;;;;;;5087338;28;20375;-77
2022/10/27 04:50:09;;;;;;;0.00;0.00;;;;;;;;;;5085007;28;20054;-76
2022/10/27 04:52:35;;;;;;;0.00;0.00;;;;;;;;;;5105608;28;20553;-77
2022/10/27 04:55:02;;;;;;;0.10;0.10;;;;;;;;;;5105980;28;20027;-77
2022/10/27 04:57:28;;;;;;;0.00;0.00;;;;;;;;;;5109952;28;20024;-74
2022/10/27 04:59:54;;;;;;;0.00;0.00;;;;;;;;;;5097208;28;20059;-76
2022/10/27 05:02:21;;;;;;;0.00;0.00;;;;;;;;;;5109764;27;20024;-77
2022/10/27 05:04:47;;;;;;;1.40;0.77;;;;;;;;;;5089535;28;21994;-75
2022/10/27 05:07:13;;;;;;;0.00;0.00;;;;;;;;;;5097746;28;20065;-78
2022/10/27 05:09:40;;;;;;;0.00;0.00;;;;;;;;;;5113416;28;20110;-76
2022/10/27 05:12:06;;;;;;;0.50;0.50;;;;;;;;;;5099133;28;20085;-76
2022/10/27 05:14:33;;;;;;;0.15;0.08;;;;;;;;;;5089519;28;20016;-76
2022/10/27 05:16:59;;;;;;;0.00;0.00;;;;;;;;;;5105265;28;20024;-77
2022/10/27 05:19:25;;;;;;;0.70;0.50;;;;;;;;;;5111165;28;20046;-78
2022/10/27 05:21:51;;;;;;;0.00;0.00;;;;;;;;;;5091672;28;20059;-78
2022/10/27 05:24:18;;;;;;;1.55;0.22;;;;;;;;;;5101937;28;20500;-75
2022/10/27 05:26:44;;;;;;;0.00;0.00;;;;;;;;;;5091654;28;20035;-77
2022/10/27 05:29:10;;;;;;;0.98;0.98;;;;;;;;;;5087451;28;20046;-76
2022/10/27 05:31:37;;;;;;;0.00;0.00;;;;;;;;;;5090535;28;20034;-74
2022/10/27 05:34:03;;;;;;;2.45;0.65;;;;;;;;;;5105264;28;20107;-74
2022/10/27 05:36:30;;;;;;;0.00;0.00;;;;;;;;;;5089181;28;20317;-74
2022/10/27 05:38:56;;;;;;;0.22;0.13;;;;;;;;;;5104425;28;20024;-76
2022/10/27 05:41:22;;;;;;;0.03;0.03;;;;;;;;;;5104893;28;20043;-75
2022/10/27 05:43:49;;;;;;;0.20;0.20;;;;;;;;;;5085699;28;20377;-75
2022/10/27 05:46:15;;;;;;;0.75;0.73;;;;;;;;;;5099848;28;20035;-77
2022/10/27 05:48:41;;;;;;;0.57;0.47;;;;;;;;;;5086545;28;20114;-77
2022/10/27 05:51:14;;;;;;;9.18;2.22;;;;;;;;;;5066430;28;20421;-75
2022/10/27 05:53:40;;;;;;;12.55;3.58;;;;;;;;;;5084683;28;20455;-74
2022/10/27 05:56:07;;;;;;;1.45;0.98;;;;;;;;;;5072889;28;20544;-74
2022/10/27 05:58:33;;;;;;;0.00;0.00;;;;;;;;;;5104899;28;20115;-75
2022/10/27 06:00:59;;;;;;;0.00;0.00;;;;;;;;;;5107362;28;20024;-75
2022/10/27 06:03:26;;;;;;;0.00;0.00;;;;;;;;;;5090389;28;20023;-75
2022/10/27 06:05:53;;;;;;;4.00;1.52;;;;;;;;;;5082928;28;20376;-72
2022/10/27 06:08:20;;;;;;;0.00;0.00;;;;;;;;;;5085794;28;20073;-73
2022/10/27 06:10:47;;;;;;;0.10;0.10;;;;;;;;;;5083790;28;20039;-75
2022/10/27 06:13:13;;;;;;;0.00;0.00;;;;;;;;;;5105811;28;20030;-75
2022/10/27 06:15:40;;;;;;;1.08;1.05;;;;;;;;;;5089186;28;20078;-74
2022/10/27 06:18:06;;;;;;;0.00;0.00;;;;;;;;;;5102245;27;20114;-73
2022/10/27 06:20:33;;;;;;;0.00;0.00;;;;;;;;;;5084798;28;20460;-72
2022/10/27 06:22:59;;;;;;;0.10;0.10;;;;;;;;;;5106582;28;20541;-73
2022/10/27 06:25:29;;;;;;;0.00;0.00;;;;;;;;;;5107069;28;20045;-73
2022/10/27 06:27:55;;;;;;;0.30;0.30;;;;;;;;;;5082807;28;20551;-73
2022/10/27 06:30:22;;;;;;;0.85;0.65;;;;;;;;;;5102831;28;20027;-73
2022/10/27 06:32:48;;;;;;;1.45;1.35;;;;;;;;;;5102482;28;20016;-73
2022/10/27 06:35:14;;;;;;;0.20;0.20;;;;;;;;;;5086754;28;20061;-74
2022/10/27 06:37:43;;;;;;;0.43;0.43;;;;;;;;;;5105113;28;20538;-73
2022/10/27 06:40:10;;;;;;;0.98;0.98;;;;;;;;;;5104618;28;20036;-72
2022/10/27 06:42:37;;;;;;;0.45;0.25;;;;;;;;;;5080159;28;20028;-74
2022/10/27 06:45:04;;;;;;;0.43;0.43;;;;;;;;;;5082990;28;20472;-74
2022/10/27 06:47:34;;;;;;;1.13;0.65;;;;;;;;;;5104280;28;20035;-74
2022/10/27 06:50:00;;;;;;;0.00;0.00;;;;;;;;;;5088814;28;20170;-74
2022/10/27 06:52:27;;;;;;;2.03;0.40;;;;;;;;;;5105264;28;20459;-73
2022/10/27 06:54:53;;;;;;;0.00;0.00;;;;;;;;;;5088470;28;20020;-75
2022/10/27 06:57:20;;;;;;;0.82;0.82;;;;;;;;;;5102349;28;20205;-74
2022/10/27 06:59:46;;;;;;;2.92;1.95;;;;;;;;;;5088152;28;20353;-74
2022/10/27 07:02:13;;;;;;;2.42;2.25;;;;;;;;;;5109688;28;20028;-74
2022/10/27 07:04:40;;;;;;;1.20;1.20;;;;;;;;;;5089889;28;20115;-76
2022/10/27 07:07:07;;;;;;;2.42;2.22;;;;;;;;;;5111553;28;20100;-77
2022/10/27 07:09:33;;;;;;;4.93;2.60;;;;;;;;;;5083872;28;20028;-75
2022/10/27 07:11:59;;;;;;;3.00;2.05;;;;;;;;;;5089888;28;20019;-74
2022/10/27 07:14:26;;;;;;;1.20;1.02;;;;;;;;;;5107776;28;20016;-74
2022/10/27 07:16:52;;;;;;;4.50;1.00;;;;;;;;;;5108411;28;20109;-73
2022/10/27 07:19:18;;;;;;;1.17;1.17;;;;;;;;;;5087830;28;20089;-73
2022/10/27 07:21:45;;;;;;;2.33;1.55;;;;;;;;;;5094668;28;20027;-75
2022/10/27 07:24:11;;;;;;;0.10;0.10;;;;;;;;;;5090723;28;20070;-75
2022/10/27 07:26:37;;;;;;;1.40;0.93;;;;;;;;;;5104888;28;20020;-74
2022/10/27 07:29:03;;;;;;;1.45;1.23;;;;;;;;;;5105172;28;20028;-74
2022/10/27 07:31:30;;;;;;;1.30;1.20;;;;;;;;;;5090055;28;20104;-74
2022/10/27 07:33:56;;;;;;;1.23;0.50;;;;;;;;;;5104268;28;20023;-75
2022/10/27 07:36:22;;;;;;;0.20;0.20;;;;;;;;;;5086719;28;20020;-74
2022/10/27 07:38:49;;;;;;;1.58;0.80;;;;;;;;;;5103925;28;20039;-73
2022/10/27 07:41:15;;;;;;;0.43;0.43;;;;;;;;;;5102805;28;20399;-74
2022/10/27 07:43:41;;;;;;;4.88;1.63;;;;;;;;;;5100539;28;20028;-74
2022/10/27 07:46:08;;;;;;;0.73;0.35;;;;;;;;;;5080257;28;20019;-74
2022/10/27 07:48:34;;;;;;;1.30;1.20;;;;;;;;;;5084615;28;20020;-74
2022/10/27 07:51:01;;;;;;;0.00;0.00;;;;;;;;;;5099963;28;20035;-74
2022/10/27 07:53:27;;;;;;;0.75;0.55;;;;;;;;;;5107741;28;20098;-75
2022/10/27 07:55:55;;;;;;;0.10;0.10;;;;;;;;;;5106696;28;20019;-77
2022/10/27 07:58:21;;;;;;;1.23;0.98;;;;;;;;;;5087381;28;20027;-76
2022/10/27 08:00:48;;;;;;;0.00;0.00;;;;;;;;;;5084467;28;20099;-77
2022/10/27 08:03:21;;;;;;;0.00;0.00;;;;;;;;;;5102915;28;20107;-76
2022/10/27 08:05:48;;;;;;;0.13;0.13;;;;;;;;;;5104200;28;20019;-76
2022/10/27 08:08:15;;;;;;;1.45;0.80;;;;;;;;;;5087602;28;20062;-77
2022/10/27 08:10:42;;;;;;;0.10;0.10;;;;;;;;;;5102817;28;20031;-78
2022/10/27 08:13:09;;;;;;;0.00;0.00;;;;;;;;;;5105101;28;20118;-75
2022/10/27 08:15:36;;;;;;;0.95;0.77;;;;;;;;;;5084104;28;20024;-78
2022/10/27 08:18:08;;;;;;;0.40;0.40;;;;;;;;;;5089782;28;20152;-82
2022/10/27 08:20:37;;;;;;;0.80;0.38;;;;;;;;;;5095319;28;20109;-78
2022/10/27 08:23:04;;;;;;;0.00;0.00;;;;;;;;;;5081518;28;20028;-76
2022/10/27 08:25:31;;;;;;;0.17;0.17;;;;;;;;;;5086426;28;20028;-78
2022/10/27 08:27:58;;;;;;;0.10;0.10;;;;;;;;;;5089902;28;20024;-78
2022/10/27 08:30:26;;;;;;;0.00;0.00;;;;;;;;;;5090329;28;20066;-77
2022/10/27 08:32:55;;;;;;;0.38;0.38;;;;;;;;;;5091425;28;20029;-76
2022/10/27 08:35:22;;;;;;;0.00;0.00;;;;;;;;;;5085732;28;20040;-76
2022/10/27 08:37:48;;;;;;;0.10;0.00;;;;;;;;;;5088796;28;20086;-76
2022/10/27 08:40:15;;;;;;;0.05;0.05;;;;;;;;;;5086655;28;20051;-77
2022/10/27 08:42:59;;;;;;;0.22;0.20;;;;;;;;;;5090974;28;20032;-77
2022/10/27 08:45:39;;;;;;;0.30;0.30;;;;;;;;;;5086622;28;20111;-74
2022/10/27 08:48:09;;;;;;;0.00;0.00;;;;;;;;;;5086304;28;20066;-77
2022/10/27 08:50:39;;;;;;;0.00;0.00;;;;;;;;;;5091406;28;20107;-76
2022/10/27 08:53:06;;;;;;;0.65;0.65;;;;;;;;;;5086106;28;20035;-76
2022/10/27 08:55:38;;;;;;;0.00;0.00;;;;;;;;;;5092658;28;20484;-76
2022/10/27 08:58:23;;;;;;;0.00;0.00;;;;;;;;;;5085718;28;20031;-76
2022/10/27 09:00:58;;;;;;;0.00;0.00;;;;;;;;;;5079521;28;20061;-75
2022/10/27 09:03:43;;;;;;;1.77;0.43;;;;;;;;;;5085371;28;20534;-74
2022/10/27 09:06:12;;;;;;;1.13;1.13;;;;;;;;;;5091862;28;20028;-73
2022/10/27 09:09:05;;;;;;;0.00;0.00;;;;;;;;;;5085755;28;20036;-73
2022/10/27 09:11:57;;;;;;;0.00;0.00;;;;;;;;;;5051866;28;20086;-73
2022/10/27 09:14:50;;;;;;;0.25;0.25;;;;;;;;;;5055586;28;20162;-74
2022/10/27 09:17:16;;;;;;;0.00;0.00;;;;;;;;;;5027140;28;20134;-75
2022/10/27 09:19:52;;;;;;;0.35;0.35;;;;;;;;;;5085383;28;20484;-76
2022/10/27 09:22:22;;;;;;;0.10;0.10;;;;;;;;;;5071063;28;20067;-73
2022/10/27 09:25:11;;;;;;;0.70;0.70;;;;;;;;;;5065060;28;20092;-72
2022/10/27 09:27:38;;;;;;;0.60;0.60;;;;;;;;;;5065057;28;20484;-73
2022/10/27 09:30:05;;;;;;;0.30;0.30;;;;;;;;;;5048820;28;20047;-78
2022/10/27 09:32:33;;;;;;;0.95;0.43;;;;;;;;;;5065355;28;20025;-78
2022/10/27 09:35:01;;;;;;;0.00;0.00;;;;;;;;;;5060794;28;20020;-79
2022/10/27 09:37:29;;;;;;;0.45;0.45;;;;;;;;;;5074356;28;20012;-80
2022/10/27 09:39:56;;;;;;;0.90;0.20;;;;;;;;;;5071007;28;20024;-80
2022/10/27 09:42:24;;;;;;;0.25;0.25;;;;;;;;;;5053332;28;20039;-81
2022/10/27 09:44:53;;;;;;;0.00;0.00;;;;;;;;;;5050884;28;20050;-79
2022/10/27 09:47:21;;;;;;;0.00;0.00;;;;;;;;;;5051179;28;20370;-80
2022/10/27 09:49:48;;;;;;;0.00;0.00;;;;;;;;;;5068301;28;20089;-78
2022/10/27 09:52:24;;;;;;;0.05;0.05;;;;;;;;;;5064330;28;20020;-77
2022/10/27 09:55:48;;;;;;;0.00;0.00;;;;;;;;;;5101177;27;20425;-77
2022/10/27 09:58:14;;;;;;;0.55;0.55;;;;;;;;;;5080654;28;20020;-75
2022/10/27 10:00:41;;;;;;;0.13;0.13;;;;;;;;;;5051051;28;20033;-79
2022/10/27 10:03:19;;;;;;;0.35;0.35;;;;;;;;;;5036539;28;20025;-76
2022/10/27 10:05:46;;;;;;;1.25;1.05;;;;;;;;;;5054830;28;20032;-75
2022/10/27 10:08:21;;;;;;;4.00;3.45;;;;;;;;;;5039868;28;20514;-83
2022/10/27 10:10:53;;;;;;;0.47;0.47;;;;;;;;;;5036456;28;20091;-81
2022/10/27 10:13:23;;;;;;;0.65;0.30;;;;;;;;;;5039573;28;20082;-79
2022/10/27 10:16:04;;;;;;;1.85;0.75;;;;;;;;;;5058155;28;20083;-78
2022/10/27 10:18:31;;;;;;;0.00;0.00;;;;;;;;;;5063615;28;20052;-78
2022/10/27 10:21:15;;;;;;;0.00;0.00;;;;;;;;;;5071115;28;20016;-80
2022/10/27 10:23:42;;;;;;;0.35;0.30;;;;;;;;;;5055273;28;20075;-80
2022/10/27 10:26:16;;;;;;;0.47;0.47;;;;;;;;;;5053721;28;20055;-82
2022/10/27 10:28:44;;;;;;;0.00;0.00;;;;;;;;;;5038441;28;20164;-81
2022/10/27 10:31:12;;;;;;;0.00;0.00;;;;;;;;;;5035852;28;20387;-82
2022/10/27 10:33:39;;;;;;;0.15;0.10;;;;;;;;;;5054852;28;20033;-80
2022/10/27 10:36:18;;;;;;;0.43;0.25;;;;;;;;;;5056406;28;20018;-81
2022/10/27 10:38:48;;;;;;;2.47;2.13;;;;;;;;;;5037089;28;20021;-80
2022/10/27 10:41:16;;;;;;;0.57;0.57;;;;;;;;;;5055580;28;20060;-82
2022/10/27 10:43:43;;;;;;;0.47;0.47;;;;;;;;;;5041771;28;20033;-83
2022/10/27 10:46:23;;;;;;;0.03;0.03;;;;;;;;;;5059947;28;20102;-81
2022/10/27 10:48:52;;;;;;;0.43;0.43;;;;;;;;;;5041617;28;20029;-80
2022/10/27 10:51:26;;;;;;;1.02;1.00;;;;;;;;;;5044675;28;20029;-82
2022/10/27 10:53:56;;;;;;;0.00;0.00;;;;;;;;;;5070299;28;20037;-82
2022/10/27 10:56:29;;;;;;;0.20;0.20;;;;;;;;;;5037361;28;20038;-81
2022/10/27 10:59:16;;;;;;;0.15;0.15;;;;;;;;;;5059130;28;20021;-82
2022/10/27 11:01:48;;;;;;;0.50;0.50;;;;;;;;;;5032252;28;20041;-82
2022/10/27 11:04:20;;;;;;;2.53;1.27;;;;;;;;;;5025475;28;20069;-85
2022/10/27 11:07:05;;;;;;;0.00;0.00;;;;;;;;;;5007429;28;20038;-84
2022/10/27 11:09:51;;;;;;;0.00;0.00;;;;;;;;;;5025416;28;20034;-85
2022/10/27 11:12:30;;;;;;;0.52;0.52;;;;;;;;;;5015321;28;20211;-87
2022/10/27 11:15:00;;;;;;;0.00;0.00;;;;;;;;;;5011446;28;20037;-81
2022/10/27 11:17:28;;;;;;;0.00;0.00;;;;;;;;;;5022145;28;20052;-79
2022/10/27 11:19:54;;;;;;;0.00;0.00;;;;;;;;;;5023389;28;20469;-81
2022/10/27 11:22:21;;;;;;;0.95;0.55;;;;;;;;;;5005742;28;20125;-81
2022/10/27 11:24:51;;;;;;;0.00;0.00;;;;;;;;;;5023433;28;20030;-83
2022/10/27 11:27:22;;;;;;;1.45;1.40;;;;;;;;;;5000216;28;21435;-80
2022/10/27 11:29:48;;;;;;;0.00;0.00;;;;;;;;;;5023496;28;20396;-77
2022/10/27 11:32:26;;;;;;;0.00;0.00;;;;;;;;;;5019696;28;20028;-77
2022/10/27 11:35:01;;;;;;;0.00;0.00;;;;;;;;;;5013057;28;20495;-78
2022/10/27 11:37:40;;;;;;;0.03;0.03;;;;;;;;;;5001114;28;20030;-77
2022/10/27 11:40:07;;;;;;;0.00;0.00;;;;;;;;;;5022351;28;20488;-76
2022/10/27 11:42:45;;;;;;;0.80;0.65;;;;;;;;;;5016535;28;20025;-81
2022/10/27 11:45:25;;;;;;;0.00;0.00;;;;;;;;;;5001280;28;20029;-80
2022/10/27 11:47:57;;;;;;;2.85;1.30;;;;;;;;;;4999428;28;20064;-80
2022/10/27 11:51:02;;;;;;;0.28;0.10;;;;;;;;;;5006104;28;20065;-80
2022/10/27 11:53:28;;;;;;;0.88;0.63;;;;;;;;;;4952817;28;20054;-80
2022/10/27 11:56:12;;;;;;;0.52;0.52;;;;;;;;;;4989429;28;20023;-80
2022/10/27 11:58:41;;;;;;;1.77;1.67;;;;;;;;;;5012627;28;20037;-81
2022/10/27 12:01:16;;;;;;;2.63;2.13;;;;;;;;;;5040127;28;20030;-80
2022/10/27 12:04:02;;;;;;;1.70;1.60;;;;;;;;;;5044347;28;20029;-83
2022/10/27 12:06:38;;;;;;;5.00;2.72;;;;;;;;;;5040841;28;20021;-82
2022/10/27 12:09:40;;;;;;;0.35;0.35;;;;;;;;;;5042045;28;20083;-85
2022/10/27 12:12:19;;;;;;;4.13;3.83;;;;;;;;;;4984160;28;20054;-79
2022/10/27 12:15:05;;;;;;;8.77;6.13;;;;;;;;;;5040400;28;20137;-83
2022/10/27 12:17:37;;;;;;;4.15;2.55;;;;;;;;;;5041409;28;20468;-80
2022/10/27 12:20:04;;;;;;;38.35;21.40;;;;;;;;;;5051387;28;20032;-82
2022/10/27 12:22:34;;;;;;;18.00;9.70;;;;;;;;;;5061340;28;20032;-78
2022/10/27 12:25:16;;;;;;;40.78;14.93;;;;;;;;;;5034397;28;20043;-80
2022/10/27 12:27:47;;;;;;;12.57;7.85;;;;;;;;;;5041869;28;20060;-77
2022/10/27 12:30:17;;;;;;;23.98;14.43;;;;;;;;;;5046356;28;20028;-79
2022/10/27 12:32:52;;;;;;;21.67;13.10;;;;;;;;;;5036016;28;20044;-76
2022/10/27 12:35:18;;;;;;;1.25;1.17;;;;;;;;;;5042811;28;20024;-80
2022/10/27 12:37:53;;;;;;;5.65;5.25;;;;;;;;;;5041258;28;20057;-80
2022/10/27 12:40:20;;;;;;;6.00;3.90;;;;;;;;;;5041218;28;20060;-79
2022/10/27 12:43:04;;;;;;;20.63;12.45;;;;;;;;;;5038776;28;20053;-81
2022/10/27 12:45:31;;;;;;;20.73;12.98;;;;;;;;;;5046928;28;20033;-81
2022/10/27 12:48:03;;;;;;;17.23;11.65;;;;;;;;;;5036505;28;20464;-77
2022/10/27 12:50:43;;;;;;;8.75;5.63;;;;;;;;;;5036088;28;20040;-77
2022/10/27 12:53:29;;;;;;;9.90;6.30;;;;;;;;;;5037020;28;20033;-77
2022/10/27 12:56:05;;;;;;;10.27;6.20;;;;;;;;;;5016179;28;20032;-76
2022/10/27 12:58:38;;;;;;;13.15;8.20;;;;;;;;;;5027124;28;20021;-78
2022/10/27 13:01:23;;;;;;;1.85;1.55;;;;;;;;;;5017138;28;20017;-78
2022/10/27 13:03:58;;;;;;;9.90;7.03;;;;;;;;;;5012302;28;20030;-78
2022/10/27 13:06:30;;;;;;;1.58;1.05;;;;;;;;;;5014384;28;20116;-77
2022/10/27 13:09:12;;;;;;;10.50;8.38;;;;;;;;;;5024937;28;20095;-78
2022/10/27 13:11:38;;;;;;;9.85;9.07;;;;;;;;;;5004324;28;20111;-76
2022/10/27 13:14:27;;;;;;;7.95;5.50;;;;;;;;;;5017687;28;20109;-79
2022/10/27 13:17:06;;;;;;;10.65;6.30;;;;;;;;;;4963271;28;20077;-77
2022/10/27 13:19:50;;;;;;;3.55;3.30;;;;;;;;;;5012552;28;20475;-78
2022/10/27 13:22:20;;;;;;;3.67;3.20;;;;;;;;;;5002850;28;20050;-79
2022/10/27 13:24:49;;;;;;;1.73;1.55;;;;;;;;;;5015183;28;20055;-77
2022/10/27 13:27:38;;;;;;;8.25;5.45;;;;;;;;;;5016322;28;20037;-78
2022/10/27 13:30:07;;;;;;;8.93;6.28;;;;;;;;;;5015549;28;20034;-75
2022/10/27 13:32:41;;;;;;;13.68;4.38;;;;;;;;;;5003395;28;20076;-77
2022/10/27 13:35:10;;;;;;;3.33;2.20;;;;;;;;;;5013664;28;20377;-77
2022/10/27 13:37:43;;;;;;;6.15;3.05;;;;;;;;;;5012163;28;20087;-77
2022/10/27 13:40:19;;;;;;;4.32;2.88;;;;;;;;;;5027456;28;20022;-77
2022/10/27 13:42:46;;;;;;;4.65;3.10;;;;;;;;;;5005250;28;20021;-77
2022/10/27 13:45:31;;;;;;;6.68;4.32;;;;;;;;;;5032613;28;20089;-80
2022/10/27 13:48:09;;;;;;;6.03;4.97;;;;;;;;;;5012886;28;20059;-79
2022/10/27 13:50:40;;;;;;;9.88;6.78;;;;;;;;;;5015946;28;20034;-77
2022/10/27 13:53:19;;;;;;;12.70;7.03;;;;;;;;;;5005788;28;20034;-78
2022/10/27 13:55:45;;;;;;;9.30;6.25;;;;;;;;;;5027303;28;20388;-78
2022/10/27 13:58:20;;;;;;;5.45;4.13;;;;;;;;;;5009165;28;20050;-75
2022/10/27 14:01:03;;;;;;;14.20;7.47;;;;;;;;;;5024321;28;20026;-77
2022/10/27 14:03:37;;;;;;;5.90;4.10;;;;;;;;;;5032801;28;20528;-76
2022/10/27 14:06:09;;;;;;;4.45;3.38;;;;;;;;;;5033025;28;20345;-76
2022/10/27 14:08:47;;;;;;;15.15;5.00;;;;;;;;;;4996695;28;20026;-75
2022/10/27 14:11:16;;;;;;;0.00;0.00;;;;;;;;;;4995347;28;20026;-76
2022/10/27 14:13:53;;;;;;;7.45;4.80;;;;;;;;;;5012791;28;20088;-77
2022/10/27 14:16:20;;;;;;;3.15;2.65;;;;;;;;;;4995119;28;20065;-77
2022/10/27 14:18:57;;;;;;;8.40;4.05;;;;;;;;;;5012915;28;20026;-76
2022/10/27 14:21:24;;;;;;;3.50;1.63;;;;;;;;;;4995087;28;20072;-77
2022/10/27 14:23:51;;;;;;;0.80;0.80;;;;;;;;;;5012695;28;20030;-76
2022/10/27 14:26:34;;;;;;;19.73;6.00;;;;;;;;;;4995142;28;20496;-76
2022/10/27 14:29:00;;;;;;;3.97;3.67;;;;;;;;;;5012492;28;20018;-76
2022/10/27 14:31:29;;;;;;;3.92;3.55;;;;;;;;;;4995145;28;20037;-77
2022/10/27 14:34:14;;;;;;;2.30;2.10;;;;;;;;;;5012894;28;20057;-76
2022/10/27 14:36:41;;;;;;;9.57;7.13;;;;;;;;;;5012791;28;20026;-75
2022/10/27 14:39:07;;;;;;;2.13;0.63;;;;;;;;;;5012935;28;20552;-76
2022/10/27 14:41:34;;;;;;;3.17;2.35;;;;;;;;;;5018193;28;20074;-75
2022/10/27 14:44:03;;;;;;;0.55;0.25;;;;;;;;;;5016464;28;20030;-77
2022/10/27 14:46:34;;;;;;;1.75;1.38;;;;;;;;;;5016274;28;20093;-76
2022/10/27 14:49:01;;;;;;;3.17;2.85;;;;;;;;;;4998702;28;20451;-76
2022/10/27 14:51:29;;;;;;;4.28;3.35;;;;;;;;;;5016132;28;20030;-78
2022/10/27 14:53:57;;;;;;;4.20;3.08;;;;;;;;;;5015840;28;20070;-76
2022/10/27 14:56:24;;;;;;;11.40;7.80;;;;;;;;;;5016114;28;20101;-78
2022/10/27 14:58:58;;;;;;;18.15;5.95;;;;;;;;;;5016022;28;20022;-76
2022/10/27 15:01:29;;;;;;;8.38;6.47;;;;;;;;;;5015899;28;20494;-75